createdAt,value
2019-06-26T00:02:22.384Z,12.30
2019-06-26T00:04:48.193Z,14.07
2019-06-26T00:07:14.012Z,12.60
2019-06-26T00:09:39.879Z,14.13
2019-06-26T00:12:05.661Z,12.03
2019-06-26T00:14:31.609Z,13.93
2019-06-26T00:16:57.461Z,13.97
2019-06-26T00:19:23.247Z,13.75
2019-06-26T00:21:49.062Z,14.47
2019-06-26T00:24:14.779Z,16.03
2019-06-26T00:26:40.499Z,15.20
2019-06-26T00:29:06.219Z,17.47
2019-06-26T00:31:31.967Z,19.37
2019-06-26T00:33:57.789Z,20.08
2019-06-26T00:36:23.494Z,20.20
2019-06-26T00:38:49.238Z,20.10
2019-06-26T00:41:15.109Z,19.23
2019-06-26T00:43:42.668Z,18.32
2019-06-26T00:46:08.597Z,17.53
2019-06-26T00:48:34.381Z,22.37
2019-06-26T00:51:00.698Z,18.77
2019-06-26T00:53:26.455Z,19.37
2019-06-26T00:55:55.093Z,18.37
2019-06-26T00:58:19.936Z,16.53
2019-06-26T01:00:47.580Z,16.70
2019-06-26T01:03:13.324Z,15.90
2019-06-26T01:05:39.144Z,15.60
2019-06-26T01:08:04.900Z,15.60
2019-06-26T01:10:30.690Z,13.57
2019-06-26T01:12:56.459Z,15.57
2019-06-26T01:15:22.317Z,16.07
2019-06-26T01:17:48.424Z,16.17
2019-06-26T01:20:14.234Z,19.40
2019-06-26T01:22:40.052Z,22.10
2019-06-26T01:25:06.121Z,19.37
2019-06-26T01:27:31.996Z,18.55
2019-06-26T01:29:57.860Z,23.37
2019-06-26T01:32:23.640Z,21.83
2019-06-26T01:34:49.439Z,19.60
2019-06-26T01:37:15.178Z,17.10
2019-06-26T01:39:40.917Z,21.00
2019-06-26T01:42:06.714Z,16.83
2019-06-26T01:44:32.482Z,18.27
2019-06-26T01:46:58.330Z,20.03
2019-06-26T01:49:24.106Z,16.17
2019-06-26T01:51:49.810Z,15.60
2019-06-26T01:54:15.555Z,14.70
2019-06-26T01:56:41.352Z,15.37
2019-06-26T01:59:07.129Z,13.77
2019-06-26T02:01:33.034Z,14.13
2019-06-26T02:03:58.758Z,12.33
2019-06-26T02:06:24.598Z,13.77
2019-06-26T02:08:50.302Z,10.57
2019-06-26T02:11:16.045Z,12.20
2019-06-26T02:13:41.893Z,9.87
2019-06-26T02:16:07.697Z,10.50
2019-06-26T02:18:41.226Z,8.80
2019-06-26T02:21:07.052Z,11.40
2019-06-26T02:23:33.052Z,10.47
2019-06-26T02:25:58.780Z,11.63
2019-06-26T02:28:24.522Z,10.93
2019-06-26T02:30:50.412Z,12.30
2019-06-26T02:33:16.687Z,8.15
2019-06-26T02:35:42.525Z,8.67
2019-06-26T02:38:08.420Z,11.17
2019-06-26T02:40:34.143Z,9.93
2019-06-26T02:42:59.868Z,10.00
2019-06-26T02:45:25.689Z,9.13
2019-06-26T02:47:51.399Z,8.73
2019-06-26T02:50:17.165Z,11.27
2019-06-26T02:52:43.082Z,8.07
2019-06-26T02:55:09.175Z,9.43
2019-06-26T02:57:34.935Z,8.87
2019-06-26T03:00:00.781Z,8.17
2019-06-26T03:02:26.713Z,7.97
2019-06-26T03:04:52.608Z,6.80
2019-06-26T03:07:18.438Z,7.63
2019-06-26T03:09:44.155Z,10.10
2019-06-26T03:12:09.967Z,7.65
2019-06-26T03:14:35.763Z,8.13
2019-06-26T03:17:01.518Z,7.93
2019-06-26T03:19:27.266Z,8.33
2019-06-26T03:21:53.129Z,9.13
2019-06-26T03:24:18.901Z,8.73
2019-06-26T03:26:44.638Z,6.73
2019-06-26T03:29:10.365Z,6.63
2019-06-26T03:31:36.171Z,6.57
2019-06-26T03:34:02.007Z,6.87
2019-06-26T03:36:27.834Z,9.33
2019-06-26T03:38:53.539Z,6.73
2019-06-26T03:41:19.312Z,7.70
2019-06-26T03:43:45.102Z,8.57
2019-06-26T03:46:10.819Z,7.83
2019-06-26T03:48:36.564Z,5.90
2019-06-26T03:51:02.404Z,7.80
2019-06-26T03:53:28.312Z,5.70
2019-06-26T03:55:54.071Z,7.07
2019-06-26T03:58:19.958Z,6.13
2019-06-26T04:00:45.926Z,5.37
2019-06-26T04:03:11.759Z,6.53
2019-06-26T04:05:37.759Z,7.83
2019-06-26T04:08:03.596Z,5.00
2019-06-26T04:10:29.512Z,6.40
2019-06-26T04:12:55.231Z,6.13
2019-06-26T04:15:21.056Z,5.80
2019-06-26T04:17:46.773Z,5.53
2019-06-26T04:20:12.587Z,7.63
2019-06-26T04:22:38.320Z,5.90
2019-06-26T04:25:04.867Z,6.53
2019-06-26T04:27:30.587Z,6.17
2019-06-26T04:29:56.309Z,8.30
2019-06-26T04:32:22.037Z,8.77
2019-06-26T04:34:47.850Z,5.20
2019-06-26T04:37:13.581Z,5.43
2019-06-26T04:39:39.305Z,7.57
2019-06-26T04:42:05.063Z,4.83
2019-06-26T04:44:30.854Z,5.80
2019-06-26T04:46:56.736Z,5.57
2019-06-26T04:49:22.611Z,5.77
2019-06-26T04:51:48.336Z,5.60
2019-06-26T04:54:14.066Z,5.30
2019-06-26T04:56:39.762Z,5.03
2019-06-26T04:59:05.498Z,5.97
2019-06-26T05:01:31.288Z,7.80
2019-06-26T05:03:57.178Z,6.63
2019-06-26T05:06:22.978Z,7.73
2019-06-26T05:08:48.840Z,8.43
2019-06-26T05:11:14.626Z,6.50
2019-06-26T05:13:40.366Z,6.40
2019-06-26T05:16:14.954Z,7.23
2019-06-26T05:18:33.756Z,7.40
2019-06-26T05:20:59.465Z,10.10
2019-06-26T05:23:25.232Z,6.57
2019-06-26T05:25:51.053Z,5.87
2019-06-26T05:28:16.847Z,4.80
2019-06-26T05:30:42.656Z,6.83
2019-06-26T05:33:08.491Z,5.77
2019-06-26T05:35:35.326Z,8.73
2019-06-26T05:38:01.318Z,7.33
2019-06-26T05:40:27.027Z,9.13
2019-06-26T05:42:52.844Z,12.30
2019-06-26T05:45:18.998Z,7.07
2019-06-26T05:47:44.894Z,5.33
2019-06-26T05:50:11.143Z,7.05
2019-06-26T05:52:36.843Z,9.97
2019-06-26T05:55:03.358Z,6.30
2019-06-26T05:57:29.128Z,5.80
2019-06-26T05:59:54.866Z,5.15
2019-06-26T06:02:20.658Z,4.93
2019-06-26T06:04:46.395Z,3.63
2019-06-26T06:07:12.132Z,4.03
2019-06-26T06:09:37.938Z,5.42
2019-06-26T06:12:03.883Z,4.40
2019-06-26T06:14:29.613Z,4.33
2019-06-26T06:16:55.414Z,4.45
2019-06-26T06:19:21.247Z,7.62
2019-06-26T06:21:47.112Z,4.28
2019-06-26T06:24:12.901Z,6.72
2019-06-26T06:26:38.722Z,4.10
2019-06-26T06:29:04.630Z,4.28
2019-06-26T06:31:30.474Z,4.47
2019-06-26T06:33:56.193Z,3.27
2019-06-26T06:36:21.964Z,4.15
2019-06-26T06:38:47.861Z,4.83
2019-06-26T06:41:13.588Z,6.20
2019-06-26T06:43:39.334Z,3.97
2019-06-26T06:46:05.143Z,4.90
2019-06-26T06:48:30.952Z,7.30
2019-06-26T06:50:56.704Z,3.70
2019-06-26T06:53:22.503Z,3.40
2019-06-26T06:55:48.222Z,4.10
2019-06-26T06:58:13.964Z,3.80
2019-06-26T07:00:39.877Z,4.47
2019-06-26T07:03:05.596Z,3.15
2019-06-26T07:05:31.339Z,3.98
2019-06-26T07:07:57.040Z,4.60
2019-06-26T07:10:22.878Z,3.60
2019-06-26T07:12:48.620Z,3.87
2019-06-26T07:15:14.552Z,3.97
2019-06-26T07:17:40.347Z,3.37
2019-06-26T07:20:06.625Z,3.15
2019-06-26T07:22:32.652Z,3.20
2019-06-26T07:24:58.450Z,3.33
2019-06-26T07:27:24.178Z,3.22
2019-06-26T07:29:49.906Z,3.05
2019-06-26T07:32:15.714Z,3.30
2019-06-26T07:34:41.486Z,3.45
2019-06-26T07:37:07.267Z,3.27
2019-06-26T07:39:33.118Z,3.65
2019-06-26T07:41:58.964Z,4.97
2019-06-26T07:44:24.948Z,4.67
2019-06-26T07:46:50.800Z,3.10
2019-06-26T07:49:16.630Z,3.33
2019-06-26T07:51:42.422Z,3.12
2019-06-26T07:54:08.180Z,3.15
2019-06-26T07:56:33.999Z,2.90
2019-06-26T07:58:59.711Z,3.22
2019-06-26T08:01:25.513Z,3.25
2019-06-26T08:03:51.237Z,3.30
2019-06-26T08:06:16.986Z,2.75
2019-06-26T08:08:42.716Z,3.40
2019-06-26T08:11:08.432Z,2.92
2019-06-26T08:13:34.145Z,2.92
2019-06-26T08:15:59.870Z,3.40
2019-06-26T08:18:25.600Z,3.35
2019-06-26T08:21:07.500Z,2.73
2019-06-26T08:23:18.994Z,2.87
2019-06-26T08:25:44.754Z,2.72
2019-06-26T08:28:10.559Z,3.60
2019-06-26T08:30:36.373Z,5.17
2019-06-26T08:33:02.329Z,3.15
2019-06-26T08:35:28.193Z,3.22
2019-06-26T08:38:08.871Z,3.27
2019-06-26T08:40:21.673Z,2.58
2019-06-26T08:42:47.541Z,2.90
2019-06-26T08:45:13.578Z,2.87
2019-06-26T08:47:39.344Z,2.95
2019-06-26T08:50:05.648Z,3.22
2019-06-26T08:52:31.454Z,3.15
2019-06-26T08:54:57.206Z,3.72
2019-06-26T08:57:23.006Z,2.72
2019-06-26T08:59:48.700Z,3.37
2019-06-26T09:02:14.595Z,3.12
2019-06-26T09:04:40.408Z,2.42
2019-06-26T09:07:06.303Z,3.42
2019-06-26T09:09:32.068Z,3.27
2019-06-26T09:11:57.990Z,3.10
2019-06-26T09:14:23.821Z,3.17
2019-06-26T09:16:50.591Z,3.17
2019-06-26T09:19:16.577Z,3.30
2019-06-26T09:21:42.297Z,3.98
2019-06-26T09:24:08.024Z,2.77
2019-06-26T09:26:33.862Z,2.77
2019-06-26T09:28:59.578Z,3.62
2019-06-26T09:31:25.418Z,3.33
2019-06-26T09:33:51.234Z,3.20
2019-06-26T09:36:17.098Z,3.00
2019-06-26T09:38:42.984Z,3.02
2019-06-26T09:41:08.729Z,2.80
2019-06-26T09:43:34.674Z,2.83
2019-06-26T09:46:00.469Z,2.90
2019-06-26T09:48:26.195Z,2.90
2019-06-26T09:50:52.091Z,3.83
2019-06-26T09:53:17.950Z,3.20
2019-06-26T09:55:43.673Z,3.10
2019-06-26T09:58:13.027Z,2.85
2019-06-26T10:00:37.264Z,4.15
2019-06-26T10:03:03.724Z,2.60
2019-06-26T10:05:29.548Z,3.08
2019-06-26T10:07:55.453Z,2.75
2019-06-26T10:10:21.420Z,3.17
2019-06-26T10:12:47.358Z,3.40
2019-06-26T10:15:13.347Z,3.33
2019-06-26T10:17:39.273Z,3.60
2019-06-26T10:20:05.515Z,2.62
2019-06-26T10:22:31.247Z,2.90
2019-06-26T10:24:56.979Z,3.30
2019-06-26T10:27:22.798Z,2.97
2019-06-26T10:29:48.490Z,3.00
2019-06-26T10:32:14.228Z,3.95
2019-06-26T10:34:40.784Z,3.20
2019-06-26T10:37:06.491Z,3.80
2019-06-26T10:39:32.233Z,2.73
2019-06-26T10:41:58.135Z,4.03
2019-06-26T10:44:23.859Z,3.10
2019-06-26T10:46:49.687Z,3.02
2019-06-26T10:49:26.431Z,4.15
2019-06-26T10:51:43.194Z,3.45
2019-06-26T10:54:08.928Z,3.17
2019-06-26T10:56:34.745Z,2.92
2019-06-26T10:59:00.568Z,2.70
2019-06-26T11:01:26.389Z,3.98
2019-06-26T11:03:52.138Z,3.80
2019-06-26T11:06:17.939Z,3.40
2019-06-26T11:08:43.658Z,3.67
2019-06-26T11:11:09.594Z,3.50
2019-06-26T11:13:35.539Z,3.47
2019-06-26T11:16:01.342Z,2.85
2019-06-26T11:18:27.083Z,3.50
2019-06-26T11:20:52.898Z,3.23
2019-06-26T11:23:18.612Z,4.55
2019-06-26T11:25:44.756Z,3.40
2019-06-26T11:28:10.699Z,3.08
2019-06-26T11:30:36.478Z,3.35
2019-06-26T11:33:02.536Z,3.17
2019-06-26T11:35:28.561Z,2.92
2019-06-26T11:37:54.402Z,2.95
2019-06-26T11:40:20.489Z,3.45
2019-06-26T11:42:46.360Z,2.55
2019-06-26T11:45:12.438Z,4.05
2019-06-26T11:47:38.339Z,4.50
2019-06-26T11:50:05.233Z,3.00
2019-06-26T11:52:31.301Z,3.17
2019-06-26T11:55:02.417Z,3.22
2019-06-26T11:57:24.792Z,3.37
2019-06-26T11:59:50.524Z,3.20
2019-06-26T12:02:16.344Z,2.75
2019-06-26T12:04:42.061Z,3.98
2019-06-26T12:07:08.028Z,3.22
2019-06-26T12:09:33.832Z,4.58
2019-06-26T12:11:59.642Z,2.67
2019-06-26T12:14:26.704Z,3.80
2019-06-26T12:16:52.481Z,3.92
2019-06-26T12:19:21.022Z,2.70
2019-06-26T12:21:46.102Z,3.60
2019-06-26T12:24:11.847Z,4.33
2019-06-26T12:26:37.546Z,4.00
2019-06-26T12:29:03.322Z,3.08
2019-06-26T12:31:29.065Z,3.15
2019-06-26T12:33:54.959Z,3.10
2019-06-26T12:36:20.807Z,3.17
2019-06-26T12:38:46.617Z,3.42
2019-06-26T12:41:12.417Z,2.92
2019-06-26T12:43:38.178Z,3.40
2019-06-26T12:46:04.280Z,3.67
2019-06-26T12:48:29.993Z,3.95
2019-06-26T12:50:55.860Z,2.70
2019-06-26T12:53:22.167Z,2.92
2019-06-26T12:55:48.036Z,2.62
2019-06-26T12:58:19.976Z,3.00
2019-06-26T13:00:44.382Z,2.83
2019-06-26T13:03:10.174Z,2.98
2019-06-26T13:05:35.929Z,2.92
2019-06-26T13:08:01.749Z,4.70
2019-06-26T13:10:27.554Z,2.83
2019-06-26T13:12:53.314Z,2.77
2019-06-26T13:15:19.316Z,3.17
2019-06-26T13:17:45.058Z,4.00
2019-06-26T13:20:12.206Z,2.72
2019-06-26T13:22:38.130Z,4.00
2019-06-26T13:25:04.667Z,2.80
2019-06-26T13:27:30.428Z,2.70
2019-06-26T13:29:56.123Z,3.17
2019-06-26T13:32:21.849Z,3.83
2019-06-26T13:34:47.584Z,2.85
2019-06-26T13:37:13.395Z,2.42
2019-06-26T13:39:39.084Z,3.42
2019-06-26T13:42:04.972Z,2.75
2019-06-26T13:44:30.765Z,3.00
2019-06-26T13:46:56.604Z,2.65
2019-06-26T13:49:22.441Z,2.95
2019-06-26T13:51:48.242Z,2.70
2019-06-26T13:54:13.988Z,2.40
2019-06-26T13:56:39.806Z,3.37
2019-06-26T13:59:07.568Z,2.42
2019-06-26T14:01:33.398Z,3.15
2019-06-26T14:03:59.115Z,2.77
2019-06-26T14:06:24.830Z,3.33
2019-06-26T14:08:50.569Z,4.92
2019-06-26T14:11:16.343Z,3.12
2019-06-26T14:13:42.268Z,2.65
2019-06-26T14:16:08.197Z,2.35
2019-06-26T14:18:34.184Z,3.77
2019-06-26T14:20:59.991Z,3.62
2019-06-26T14:23:25.690Z,2.60
2019-06-26T14:25:51.438Z,2.75
2019-06-26T14:28:19.602Z,4.45
2019-06-26T14:30:44.840Z,2.47
2019-06-26T14:33:10.588Z,3.33
2019-06-26T14:35:36.386Z,2.50
2019-06-26T14:38:02.222Z,2.50
2019-06-26T14:40:27.962Z,3.83
2019-06-26T14:42:53.768Z,3.22
2019-06-26T14:45:19.574Z,2.75
2019-06-26T14:47:45.327Z,3.02
2019-06-26T14:50:11.130Z,3.15
2019-06-26T14:52:36.864Z,3.80
2019-06-26T14:55:03.511Z,2.67
2019-06-26T14:57:29.251Z,3.37
2019-06-26T14:59:55.058Z,4.67
2019-06-26T15:02:20.774Z,2.92
2019-06-26T15:04:46.512Z,2.90
2019-06-26T15:07:12.208Z,5.33
2019-06-26T15:09:37.990Z,2.87
2019-06-26T15:12:03.896Z,3.85
2019-06-26T15:14:29.731Z,3.17
2019-06-26T15:16:55.569Z,3.52
2019-06-26T15:19:21.351Z,3.15
2019-06-26T15:21:57.946Z,3.30
2019-06-26T15:24:14.782Z,2.25
2019-06-26T15:26:40.582Z,2.67
2019-06-26T15:29:06.292Z,3.33
2019-06-26T15:31:32.072Z,3.15
2019-06-26T15:33:59.893Z,2.55
2019-06-26T15:36:25.643Z,2.47
2019-06-26T15:38:51.495Z,3.72
2019-06-26T15:41:17.200Z,4.67
2019-06-26T15:43:43.042Z,2.80
2019-06-26T15:46:08.968Z,2.77
2019-06-26T15:48:34.846Z,3.12
2019-06-26T15:51:00.610Z,3.33
2019-06-26T15:53:26.519Z,2.85
2019-06-26T15:55:52.322Z,2.60
2019-06-26T15:58:18.064Z,3.25
2019-06-26T16:00:44.717Z,3.40
2019-06-26T16:03:10.545Z,2.90
2019-06-26T16:05:36.259Z,3.80
2019-06-26T16:08:02.075Z,2.65
2019-06-26T16:10:28.231Z,3.02
2019-06-26T16:12:54.150Z,3.52
2019-06-26T16:15:19.985Z,4.00
2019-06-26T16:18:05.986Z,4.42
2019-06-26T16:20:31.807Z,4.25
2019-06-26T16:22:57.712Z,2.77
2019-06-26T16:25:23.426Z,4.53
2019-06-26T16:28:04.337Z,2.62
2019-06-26T16:30:17.145Z,3.02
2019-06-26T16:32:42.964Z,3.90
2019-06-26T16:35:12.111Z,2.80
2019-06-26T16:37:36.410Z,4.90
2019-06-26T16:40:03.528Z,3.00
2019-06-26T16:42:29.353Z,2.62
2019-06-26T16:44:55.156Z,3.20
2019-06-26T16:47:20.879Z,3.52
2019-06-26T16:49:46.639Z,2.67
2019-06-26T16:52:12.423Z,2.62
2019-06-26T16:54:38.144Z,3.85
2019-06-26T16:57:03.890Z,2.85
2019-06-26T16:59:29.611Z,3.47
2019-06-26T17:01:55.316Z,3.72
2019-06-26T17:04:21.230Z,2.47
2019-06-26T17:06:47.001Z,3.72
2019-06-26T17:09:12.936Z,2.55
2019-06-26T17:11:38.788Z,5.70
2019-06-26T17:14:04.647Z,2.70
2019-06-26T17:16:30.366Z,3.50
2019-06-26T17:18:56.137Z,3.55
2019-06-26T17:21:21.967Z,6.15
2019-06-26T17:23:47.789Z,2.72
2019-06-26T17:26:13.707Z,2.87
2019-06-26T17:28:39.443Z,2.52
2019-06-26T17:31:06.374Z,5.42
2019-06-26T17:33:32.371Z,2.87
2019-06-26T17:35:58.288Z,2.95
2019-06-26T17:38:24.026Z,7.12
2019-06-26T17:40:49.762Z,3.92
2019-06-26T17:43:15.492Z,5.60
2019-06-26T17:45:41.467Z,4.60
2019-06-26T17:48:07.442Z,4.62
2019-06-26T17:50:33.190Z,3.37
2019-06-26T17:52:58.910Z,4.30
2019-06-26T17:55:24.765Z,4.70
2019-06-26T17:57:50.547Z,7.28
2019-06-26T18:00:18.290Z,7.85
2019-06-26T18:02:44.129Z,7.80
2019-06-26T18:05:10.041Z,6.72
2019-06-26T18:07:35.870Z,5.80
2019-06-26T18:10:02.765Z,10.30
2019-06-26T18:12:28.576Z,11.90
2019-06-26T18:14:54.418Z,7.15
2019-06-26T18:17:22.372Z,5.45
2019-06-26T18:19:47.930Z,7.22
2019-06-26T18:22:13.740Z,4.45
2019-06-26T18:24:39.484Z,5.30
2019-06-26T18:27:05.275Z,6.37
2019-06-26T18:29:31.098Z,7.92
2019-06-26T18:31:56.851Z,6.70
2019-06-26T18:34:22.646Z,5.15
2019-06-26T18:36:48.363Z,4.20
2019-06-26T18:39:14.135Z,3.92
2019-06-26T18:41:39.933Z,8.83
2019-06-26T18:44:05.664Z,5.20
2019-06-26T18:46:31.510Z,5.83
2019-06-26T18:48:57.422Z,5.55
2019-06-26T18:51:23.229Z,7.45
2019-06-26T18:53:53.508Z,7.53
2019-06-26T18:56:16.647Z,8.25
2019-06-26T18:58:42.668Z,4.75
2019-06-26T19:01:08.522Z,5.92
2019-06-26T19:03:34.432Z,4.70
2019-06-26T19:06:00.255Z,4.12
2019-06-26T19:08:26.210Z,5.17
2019-06-26T19:10:52.002Z,5.08
2019-06-26T19:13:20.192Z,6.28
2019-06-26T19:15:45.451Z,4.00
2019-06-26T19:18:11.253Z,4.00
2019-06-26T19:20:37.170Z,4.47
2019-06-26T19:23:03.120Z,4.03
2019-06-26T19:25:28.906Z,4.30
2019-06-26T19:27:54.751Z,4.90
2019-06-26T19:30:20.671Z,4.37
2019-06-26T19:32:46.477Z,4.05
2019-06-26T19:35:20.271Z,4.20
2019-06-26T19:37:39.978Z,4.87
2019-06-26T19:40:08.417Z,3.87
2019-06-26T19:42:34.028Z,4.78
2019-06-26T19:44:59.932Z,4.58
2019-06-26T19:47:25.846Z,4.72
2019-06-26T19:49:51.926Z,6.00
2019-06-26T19:52:17.669Z,3.35
2019-06-26T19:54:43.510Z,3.02
2019-06-26T19:57:09.253Z,3.00
2019-06-26T19:59:35.110Z,5.53
2019-06-26T20:02:02.039Z,4.83
2019-06-26T20:04:27.863Z,2.87
2019-06-26T20:06:53.879Z,3.40
2019-06-26T20:09:19.594Z,2.87
2019-06-26T20:11:45.310Z,2.45
2019-06-26T20:14:11.190Z,3.95
2019-06-26T20:16:37.286Z,3.17
2019-06-26T20:19:03.121Z,3.40
2019-06-26T20:21:29.060Z,3.12
2019-06-26T20:23:54.866Z,3.70
2019-06-26T20:26:20.606Z,2.52
2019-06-26T20:28:46.549Z,2.87
2019-06-26T20:31:12.275Z,4.72
2019-06-26T20:33:38.082Z,5.05
2019-06-26T20:36:03.929Z,3.87
2019-06-26T20:38:29.714Z,4.85
2019-06-26T20:40:55.457Z,6.33
2019-06-26T20:43:21.386Z,4.35
2019-06-26T20:45:47.249Z,3.15
2019-06-26T20:48:13.019Z,4.33
2019-06-26T20:50:38.772Z,3.08
2019-06-26T20:53:04.582Z,3.62
2019-06-26T20:55:30.735Z,3.83
2019-06-26T20:57:56.666Z,5.15
2019-06-26T21:00:22.824Z,3.33
2019-06-26T21:02:48.643Z,3.30
2019-06-26T21:05:14.454Z,2.90
2019-06-26T21:07:40.254Z,4.05
2019-06-26T21:10:06.373Z,3.17
2019-06-26T21:12:32.122Z,4.53
2019-06-26T21:14:58.051Z,4.70
2019-06-26T21:17:25.809Z,2.52
2019-06-26T21:19:51.643Z,3.37
2019-06-26T21:22:17.502Z,4.90
2019-06-26T21:24:43.375Z,2.80
2019-06-26T21:27:09.147Z,3.98
2019-06-26T21:29:34.960Z,4.60
2019-06-26T21:32:00.782Z,3.12
2019-06-26T21:34:26.749Z,2.60
2019-06-26T21:36:52.727Z,2.62
2019-06-26T21:39:18.451Z,2.37
2019-06-26T21:41:44.286Z,2.60
2019-06-26T21:44:10.102Z,2.87
2019-06-26T21:46:36.013Z,2.83
2019-06-26T21:49:02.167Z,2.83
2019-06-26T21:51:27.989Z,3.83
2019-06-26T21:53:53.702Z,3.35
2019-06-26T21:56:19.596Z,2.67
2019-06-26T21:58:45.464Z,3.70
2019-06-26T22:01:11.410Z,2.47
2019-06-26T22:03:37.140Z,2.77
2019-06-26T22:06:04.037Z,2.37
2019-06-26T22:08:30.066Z,2.60
2019-06-26T22:10:55.930Z,3.33
2019-06-26T22:13:21.805Z,3.20
2019-06-26T22:15:47.575Z,2.50
2019-06-26T22:18:13.494Z,2.60
2019-06-26T22:20:39.465Z,2.42
2019-06-26T22:23:05.287Z,2.30
2019-06-26T22:25:31.216Z,2.37
2019-06-26T22:27:57.029Z,2.40
2019-06-26T22:30:23.054Z,2.67
2019-06-26T22:32:49.002Z,2.17
2019-06-26T22:35:15.124Z,2.65
2019-06-26T22:37:40.962Z,2.17
2019-06-26T22:40:07.172Z,2.55
2019-06-26T22:42:33.330Z,2.10
2019-06-26T22:44:59.153Z,3.15
2019-06-26T22:47:24.984Z,2.45
2019-06-26T22:49:50.729Z,2.12
2019-06-26T22:52:16.607Z,2.12
2019-06-26T22:54:42.388Z,2.25
2019-06-26T22:57:08.196Z,2.17
2019-06-26T22:59:33.986Z,2.90
2019-06-26T23:01:59.713Z,2.25
2019-06-26T23:04:25.528Z,4.10
2019-06-26T23:06:51.250Z,2.62
2019-06-26T23:09:16.991Z,2.37
2019-06-26T23:11:42.722Z,2.20
2019-06-26T23:14:08.554Z,2.08
2019-06-26T23:16:34.372Z,2.40
2019-06-26T23:19:00.109Z,1.77
2019-06-26T23:21:25.804Z,2.02
2019-06-26T23:23:51.547Z,1.98
2019-06-26T23:26:23.947Z,2.15
2019-06-26T23:28:45.754Z,2.37
2019-06-26T23:31:11.582Z,2.25
2019-06-26T23:33:37.387Z,2.47
2019-06-26T23:36:03.095Z,2.08
2019-06-26T23:38:28.859Z,1.80
2019-06-26T23:40:54.698Z,2.25
2019-06-26T23:43:20.583Z,2.40
2019-06-26T23:45:46.290Z,2.33
2019-06-26T23:48:12.041Z,1.95
2019-06-26T23:50:37.834Z,2.08
2019-06-26T23:53:03.655Z,1.77
2019-06-26T23:55:29.370Z,2.60
2019-06-26T23:57:59.475Z,2.00
